sensor_id;sensor_type;location;lat;lon;timestamp;P1;durP1;ratioP1;P2;durP2;ratioP2
49626;SDS011;35527;54.616;39.786;2022-12-11T00:02:27;5.32;;;2.35;;
49626;SDS011;35527;54.616;39.786;2022-12-11T00:05:31;5.68;;;2.22;;
49626;SDS011;35527;54.616;39.786;2022-12-11T00:08:34;5.47;;;2.67;;
49626;SDS011;35527;54.616;39.786;2022-12-11T00:11:38;5.57;;;2.50;;
49626;SDS011;35527;54.616;39.786;2022-12-11T00:14:40;4.97;;;2.33;;
49626;SDS011;35527;54.616;39.786;2022-12-11T00:17:45;7.20;;;2.55;;
49626;SDS011;35527;54.616;39.786;2022-12-11T00:20:48;5.40;;;2.72;;
49626;SDS011;35527;54.616;39.786;2022-12-11T00:23:56;7.07;;;3.55;;
49626;SDS011;35527;54.616;39.786;2022-12-11T00:27:02;6.70;;;3.42;;
49626;SDS011;35527;54.616;39.786;2022-12-11T00:30:06;7.18;;;3.20;;
49626;SDS011;35527;54.616;39.786;2022-12-11T00:33:10;6.45;;;3.38;;
49626;SDS011;35527;54.616;39.786;2022-12-11T00:36:19;8.63;;;6.20;;
49626;SDS011;35527;54.616;39.786;2022-12-11T00:39:32;6.50;;;3.40;;
49626;SDS011;35527;54.616;39.786;2022-12-11T00:42:36;6.47;;;3.50;;
49626;SDS011;35527;54.616;39.786;2022-12-11T00:45:41;8.07;;;3.33;;
49626;SDS011;35527;54.616;39.786;2022-12-11T00:48:47;8.02;;;4.10;;
49626;SDS011;35527;54.616;39.786;2022-12-11T00:51:53;9.00;;;4.40;;
49626;SDS011;35527;54.616;39.786;2022-12-11T00:55:02;7.53;;;3.53;;
49626;SDS011;35527;54.616;39.786;2022-12-11T00:58:05;6.38;;;3.53;;
49626;SDS011;35527;54.616;39.786;2022-12-11T01:01:09;7.50;;;3.70;;
49626;SDS011;35527;54.616;39.786;2022-12-11T01:04:16;7.32;;;3.80;;
49626;SDS011;35527;54.616;39.786;2022-12-11T01:10:23;6.57;;;3.55;;
49626;SDS011;35527;54.616;39.786;2022-12-11T01:13:28;6.65;;;3.47;;
49626;SDS011;35527;54.616;39.786;2022-12-11T01:16:33;7.72;;;4.00;;
49626;SDS011;35527;54.616;39.786;2022-12-11T01:19:37;8.05;;;3.92;;
49626;SDS011;35527;54.616;39.786;2022-12-11T01:22:40;6.90;;;3.85;;
49626;SDS011;35527;54.616;39.786;2022-12-11T01:25:45;8.15;;;4.30;;
49626;SDS011;35527;54.616;39.786;2022-12-11T01:28:50;8.52;;;4.82;;
49626;SDS011;35527;54.616;39.786;2022-12-11T01:31:53;5.90;;;3.25;;
49626;SDS011;35527;54.616;39.786;2022-12-11T01:34:57;8.52;;;4.40;;
49626;SDS011;35527;54.616;39.786;2022-12-11T01:38:01;9.52;;;4.80;;
49626;SDS011;35527;54.616;39.786;2022-12-11T01:41:08;7.25;;;4.07;;
49626;SDS011;35527;54.616;39.786;2022-12-11T01:47:20;10.55;;;8.10;;
49626;SDS011;35527;54.616;39.786;2022-12-11T01:50:23;12.70;;;9.57;;
49626;SDS011;35527;54.616;39.786;2022-12-11T01:53:37;13.77;;;10.02;;
49626;SDS011;35527;54.616;39.786;2022-12-11T01:56:47;10.60;;;5.15;;
49626;SDS011;35527;54.616;39.786;2022-12-11T01:59:51;10.95;;;8.25;;
49626;SDS011;35527;54.616;39.786;2022-12-11T02:06:28;8.02;;;3.58;;
49626;SDS011;35527;54.616;39.786;2022-12-11T02:09:41;8.05;;;4.05;;
49626;SDS011;35527;54.616;39.786;2022-12-11T02:12:59;6.80;;;3.78;;
49626;SDS011;35527;54.616;39.786;2022-12-11T02:29:37;10.48;;;4.93;;
49626;SDS011;35527;54.616;39.786;2022-12-11T02:35:56;10.68;;;5.50;;
49626;SDS011;35527;54.616;39.786;2022-12-11T02:39:02;10.07;;;5.13;;
49626;SDS011;35527;54.616;39.786;2022-12-11T02:42:07;12.90;;;9.67;;
49626;SDS011;35527;54.616;39.786;2022-12-11T02:45:15;10.35;;;4.45;;
49626;SDS011;35527;54.616;39.786;2022-12-11T02:48:21;8.65;;;4.50;;
49626;SDS011;35527;54.616;39.786;2022-12-11T02:51:27;10.27;;;5.13;;
49626;SDS011;35527;54.616;39.786;2022-12-11T02:54:34;10.73;;;6.38;;
49626;SDS011;35527;54.616;39.786;2022-12-11T02:57:43;10.43;;;4.70;;
49626;SDS011;35527;54.616;39.786;2022-12-11T03:00:49;10.73;;;4.60;;
49626;SDS011;35527;54.616;39.786;2022-12-11T03:03:53;8.50;;;4.38;;
49626;SDS011;35527;54.616;39.786;2022-12-11T03:06:59;8.43;;;4.17;;
49626;SDS011;35527;54.616;39.786;2022-12-11T03:10:17;6.75;;;3.30;;
49626;SDS011;35527;54.616;39.786;2022-12-11T03:13:24;8.02;;;3.47;;
49626;SDS011;35527;54.616;39.786;2022-12-11T03:16:33;7.15;;;3.80;;
49626;SDS011;35527;54.616;39.786;2022-12-11T03:19:39;7.00;;;3.45;;
49626;SDS011;35527;54.616;39.786;2022-12-11T03:23:08;8.23;;;3.78;;
49626;SDS011;35527;54.616;39.786;2022-12-11T03:26:26;10.10;;;7.43;;
49626;SDS011;35527;54.616;39.786;2022-12-11T03:29:35;8.40;;;4.13;;
49626;SDS011;35527;54.616;39.786;2022-12-11T03:32:49;7.00;;;4.05;;
49626;SDS011;35527;54.616;39.786;2022-12-11T03:36:05;7.22;;;3.70;;
49626;SDS011;35527;54.616;39.786;2022-12-11T03:39:14;10.30;;;4.45;;
49626;SDS011;35527;54.616;39.786;2022-12-11T03:42:20;7.03;;;3.97;;
49626;SDS011;35527;54.616;39.786;2022-12-11T03:45:27;7.43;;;3.65;;
49626;SDS011;35527;54.616;39.786;2022-12-11T03:48:34;8.10;;;4.10;;
49626;SDS011;35527;54.616;39.786;2022-12-11T03:51:41;10.25;;;5.03;;
49626;SDS011;35527;54.616;39.786;2022-12-11T03:54:48;8.23;;;4.55;;
49626;SDS011;35527;54.616;39.786;2022-12-11T03:57:52;8.93;;;4.65;;
49626;SDS011;35527;54.616;39.786;2022-12-11T04:00:56;8.15;;;3.90;;
49626;SDS011;35527;54.616;39.786;2022-12-11T04:04:02;9.05;;;4.50;;
49626;SDS011;35527;54.616;39.786;2022-12-11T04:07:07;8.75;;;4.18;;
49626;SDS011;35527;54.616;39.786;2022-12-11T04:10:10;8.90;;;4.45;;
49626;SDS011;35527;54.616;39.786;2022-12-11T04:13:15;8.27;;;3.92;;
49626;SDS011;35527;54.616;39.786;2022-12-11T04:16:20;8.60;;;4.40;;
49626;SDS011;35527;54.616;39.786;2022-12-11T04:19:24;8.82;;;4.35;;
49626;SDS011;35527;54.616;39.786;2022-12-11T04:22:46;10.50;;;5.03;;
49626;SDS011;35527;54.616;39.786;2022-12-11T04:26:16;10.50;;;4.75;;
49626;SDS011;35527;54.616;39.786;2022-12-11T04:29:20;7.55;;;3.60;;
49626;SDS011;35527;54.616;39.786;2022-12-11T04:32:23;9.65;;;4.63;;
49626;SDS011;35527;54.616;39.786;2022-12-11T04:35:27;10.00;;;5.47;;
49626;SDS011;35527;54.616;39.786;2022-12-11T04:38:35;12.43;;;5.43;;
49626;SDS011;35527;54.616;39.786;2022-12-11T04:41:39;12.20;;;5.20;;
49626;SDS011;35527;54.616;39.786;2022-12-11T04:44:43;12.02;;;6.28;;
49626;SDS011;35527;54.616;39.786;2022-12-11T04:47:48;10.07;;;5.50;;
49626;SDS011;35527;54.616;39.786;2022-12-11T04:50:57;14.48;;;11.70;;
49626;SDS011;35527;54.616;39.786;2022-12-11T04:54:02;10.27;;;5.55;;
49626;SDS011;35527;54.616;39.786;2022-12-11T04:57:05;9.40;;;5.10;;
49626;SDS011;35527;54.616;39.786;2022-12-11T05:00:10;12.27;;;5.75;;
49626;SDS011;35527;54.616;39.786;2022-12-11T05:03:18;16.65;;;11.32;;
49626;SDS011;35527;54.616;39.786;2022-12-11T05:06:24;15.13;;;11.13;;
49626;SDS011;35527;54.616;39.786;2022-12-11T05:09:27;15.18;;;10.93;;
49626;SDS011;35527;54.616;39.786;2022-12-11T05:12:30;17.33;;;13.15;;
49626;SDS011;35527;54.616;39.786;2022-12-11T05:15:37;11.38;;;6.03;;
49626;SDS011;35527;54.616;39.786;2022-12-11T05:19:06;10.38;;;5.53;;
49626;SDS011;35527;54.616;39.786;2022-12-11T05:22:10;13.65;;;11.00;;
49626;SDS011;35527;54.616;39.786;2022-12-11T05:25:12;13.30;;;6.03;;
49626;SDS011;35527;54.616;39.786;2022-12-11T05:28:16;12.23;;;5.93;;
49626;SDS011;35527;54.616;39.786;2022-12-11T05:31:20;13.40;;;10.60;;
49626;SDS011;35527;54.616;39.786;2022-12-11T05:34:27;10.77;;;5.60;;
49626;SDS011;35527;54.616;39.786;2022-12-11T05:37:31;11.32;;;4.80;;
49626;SDS011;35527;54.616;39.786;2022-12-11T05:40:35;9.23;;;5.18;;
49626;SDS011;35527;54.616;39.786;2022-12-11T05:43:39;8.50;;;4.00;;
49626;SDS011;35527;54.616;39.786;2022-12-11T05:46:44;12.63;;;6.15;;
49626;SDS011;35527;54.616;39.786;2022-12-11T05:49:47;8.68;;;4.97;;
49626;SDS011;35527;54.616;39.786;2022-12-11T05:52:51;9.60;;;4.65;;
49626;SDS011;35527;54.616;39.786;2022-12-11T05:55:59;9.27;;;4.43;;
49626;SDS011;35527;54.616;39.786;2022-12-11T05:59:09;12.52;;;9.75;;
49626;SDS011;35527;54.616;39.786;2022-12-11T06:02:13;8.73;;;4.13;;
49626;SDS011;35527;54.616;39.786;2022-12-11T06:05:16;13.93;;;9.80;;
49626;SDS011;35527;54.616;39.786;2022-12-11T06:08:20;11.63;;;8.95;;
49626;SDS011;35527;54.616;39.786;2022-12-11T06:11:24;9.32;;;4.25;;
49626;SDS011;35527;54.616;39.786;2022-12-11T06:14:27;9.23;;;3.75;;
49626;SDS011;35527;54.616;39.786;2022-12-11T06:17:34;9.32;;;4.43;;
49626;SDS011;35527;54.616;39.786;2022-12-11T06:20:38;10.02;;;4.35;;
49626;SDS011;35527;54.616;39.786;2022-12-11T06:23:41;10.90;;;4.63;;
49626;SDS011;35527;54.616;39.786;2022-12-11T06:26:45;10.82;;;8.30;;
49626;SDS011;35527;54.616;39.786;2022-12-11T06:29:49;10.20;;;4.63;;
49626;SDS011;35527;54.616;39.786;2022-12-11T06:32:53;8.95;;;4.25;;
49626;SDS011;35527;54.616;39.786;2022-12-11T06:36:00;9.45;;;4.50;;
49626;SDS011;35527;54.616;39.786;2022-12-11T06:39:11;10.18;;;4.60;;
49626;SDS011;35527;54.616;39.786;2022-12-11T06:42:14;10.68;;;4.43;;
49626;SDS011;35527;54.616;39.786;2022-12-11T06:45:18;10.95;;;4.70;;
49626;SDS011;35527;54.616;39.786;2022-12-11T06:48:21;16.48;;;10.98;;
49626;SDS011;35527;54.616;39.786;2022-12-11T06:51:25;15.15;;;10.73;;
49626;SDS011;35527;54.616;39.786;2022-12-11T06:54:34;10.23;;;5.70;;
49626;SDS011;35527;54.616;39.786;2022-12-11T06:57:37;15.93;;;11.68;;
49626;SDS011;35527;54.616;39.786;2022-12-11T07:00:40;10.85;;;5.18;;
49626;SDS011;35527;54.616;39.786;2022-12-11T07:03:44;12.43;;;5.97;;
49626;SDS011;35527;54.616;39.786;2022-12-11T07:06:48;14.95;;;12.30;;
49626;SDS011;35527;54.616;39.786;2022-12-11T07:09:51;11.73;;;6.10;;
49626;SDS011;35527;54.616;39.786;2022-12-11T07:12:55;11.32;;;5.45;;
49626;SDS011;35527;54.616;39.786;2022-12-11T07:16:00;11.40;;;5.95;;
49626;SDS011;35527;54.616;39.786;2022-12-11T07:19:07;10.93;;;6.07;;
49626;SDS011;35527;54.616;39.786;2022-12-11T07:22:10;13.45;;;6.25;;
49626;SDS011;35527;54.616;39.786;2022-12-11T07:25:13;13.13;;;6.10;;
49626;SDS011;35527;54.616;39.786;2022-12-11T07:28:16;16.27;;;11.57;;
49626;SDS011;35527;54.616;39.786;2022-12-11T07:31:21;16.35;;;11.65;;
49626;SDS011;35527;54.616;39.786;2022-12-11T07:34:25;17.42;;;12.90;;
49626;SDS011;35527;54.616;39.786;2022-12-11T07:37:29;15.32;;;7.28;;
49626;SDS011;35527;54.616;39.786;2022-12-11T07:40:33;13.02;;;6.53;;
49626;SDS011;35527;54.616;39.786;2022-12-11T07:43:40;18.15;;;13.25;;
49626;SDS011;35527;54.616;39.786;2022-12-11T07:46:47;14.93;;;7.00;;
49626;SDS011;35527;54.616;39.786;2022-12-11T07:49:49;12.77;;;6.75;;
49626;SDS011;35527;54.616;39.786;2022-12-11T07:52:53;22.17;;;14.02;;
49626;SDS011;35527;54.616;39.786;2022-12-11T07:55:58;14.80;;;6.50;;
49626;SDS011;35527;54.616;39.786;2022-12-11T07:59:02;14.98;;;6.10;;
49626;SDS011;35527;54.616;39.786;2022-12-11T08:02:05;19.57;;;13.37;;
49626;SDS011;35527;54.616;39.786;2022-12-11T08:05:10;13.85;;;6.60;;
49626;SDS011;35527;54.616;39.786;2022-12-11T08:08:17;19.00;;;12.57;;
49626;SDS011;35527;54.616;39.786;2022-12-11T08:11:22;14.40;;;6.10;;
49626;SDS011;35527;54.616;39.786;2022-12-11T08:14:25;9.70;;;4.32;;
49626;SDS011;35527;54.616;39.786;2022-12-11T08:17:30;18.70;;;12.32;;
49626;SDS011;35527;54.616;39.786;2022-12-11T08:20:39;13.65;;;6.82;;
49626;SDS011;35527;54.616;39.786;2022-12-11T08:23:45;14.68;;;6.05;;
49626;SDS011;35527;54.616;39.786;2022-12-11T08:26:48;15.60;;;6.18;;
49626;SDS011;35527;54.616;39.786;2022-12-11T08:29:54;13.55;;;5.75;;
49626;SDS011;35527;54.616;39.786;2022-12-11T08:33:01;12.85;;;5.70;;
49626;SDS011;35527;54.616;39.786;2022-12-11T08:39:08;17.42;;;5.80;;
49626;SDS011;35527;54.616;39.786;2022-12-11T08:42:12;14.30;;;6.05;;
49626;SDS011;35527;54.616;39.786;2022-12-11T08:45:16;14.25;;;6.40;;
49626;SDS011;35527;54.616;39.786;2022-12-11T08:48:18;13.32;;;6.28;;
49626;SDS011;35527;54.616;39.786;2022-12-11T08:51:23;17.80;;;6.45;;
49626;SDS011;35527;54.616;39.786;2022-12-11T08:54:29;12.82;;;6.55;;
49626;SDS011;35527;54.616;39.786;2022-12-11T08:57:35;19.00;;;13.20;;
49626;SDS011;35527;54.616;39.786;2022-12-11T09:00:41;13.35;;;6.38;;
49626;SDS011;35527;54.616;39.786;2022-12-11T09:03:44;15.07;;;5.85;;
49626;SDS011;35527;54.616;39.786;2022-12-11T09:06:47;14.82;;;10.80;;
49626;SDS011;35527;54.616;39.786;2022-12-11T09:09:53;12.57;;;5.88;;
49626;SDS011;35527;54.616;39.786;2022-12-11T09:12:56;10.95;;;5.20;;
49626;SDS011;35527;54.616;39.786;2022-12-11T09:15:59;11.43;;;5.78;;
49626;SDS011;35527;54.616;39.786;2022-12-11T09:19:02;11.32;;;5.43;;
49626;SDS011;35527;54.616;39.786;2022-12-11T09:22:34;11.82;;;6.53;;
49626;SDS011;35527;54.616;39.786;2022-12-11T09:25:38;12.73;;;5.55;;
49626;SDS011;35527;54.616;39.786;2022-12-11T09:28:49;19.55;;;8.25;;
49626;SDS011;35527;54.616;39.786;2022-12-11T09:32:00;16.05;;;11.07;;
49626;SDS011;35527;54.616;39.786;2022-12-11T09:35:06;12.50;;;6.72;;
49626;SDS011;35527;54.616;39.786;2022-12-11T09:38:10;12.13;;;5.45;;
49626;SDS011;35527;54.616;39.786;2022-12-11T09:47:47;9.98;;;5.53;;
49626;SDS011;35527;54.616;39.786;2022-12-11T09:50:57;13.90;;;6.60;;
49626;SDS011;35527;54.616;39.786;2022-12-11T09:54:12;16.60;;;7.00;;
49626;SDS011;35527;54.616;39.786;2022-12-11T10:00:56;14.95;;;6.47;;
49626;SDS011;35527;54.616;39.786;2022-12-11T10:12:05;9.27;;;4.38;;
49626;SDS011;35527;54.616;39.786;2022-12-11T10:15:25;14.20;;;10.07;;
49626;SDS011;35527;54.616;39.786;2022-12-11T10:18:31;9.15;;;3.92;;
49626;SDS011;35527;54.616;39.786;2022-12-11T10:21:37;14.02;;;10.00;;
49626;SDS011;35527;54.616;39.786;2022-12-11T10:28:13;10.27;;;4.50;;
49626;SDS011;35527;54.616;39.786;2022-12-11T10:35:01;11.63;;;5.32;;
49626;SDS011;35527;54.616;39.786;2022-12-11T10:41:37;12.90;;;5.47;;
49626;SDS011;35527;54.616;39.786;2022-12-11T10:44:55;12.90;;;5.93;;
49626;SDS011;35527;54.616;39.786;2022-12-11T10:48:09;12.30;;;6.53;;
49626;SDS011;35527;54.616;39.786;2022-12-11T10:51:20;15.93;;;12.15;;
49626;SDS011;35527;54.616;39.786;2022-12-11T10:54:34;16.80;;;7.30;;
49626;SDS011;35527;54.616;39.786;2022-12-11T10:57:40;15.35;;;8.05;;
49626;SDS011;35527;54.616;39.786;2022-12-11T11:04:36;19.00;;;8.27;;
49626;SDS011;35527;54.616;39.786;2022-12-11T11:07:48;13.52;;;7.60;;
49626;SDS011;35527;54.616;39.786;2022-12-11T12:47:15;22.45;;;10.00;;
49626;SDS011;35527;54.616;39.786;2022-12-11T12:50:24;19.52;;;10.57;;
49626;SDS011;35527;54.616;39.786;2022-12-11T12:53:33;25.13;;;9.93;;
49626;SDS011;35527;54.616;39.786;2022-12-11T12:56:39;19.02;;;8.50;;
49626;SDS011;35527;54.616;39.786;2022-12-11T12:59:52;17.63;;;7.70;;
49626;SDS011;35527;54.616;39.786;2022-12-11T13:02:56;16.67;;;7.90;;
49626;SDS011;35527;54.616;39.786;2022-12-11T13:06:06;23.80;;;15.75;;
49626;SDS011;35527;54.616;39.786;2022-12-11T13:09:21;19.33;;;8.07;;
49626;SDS011;35527;54.616;39.786;2022-12-11T13:12:55;16.40;;;6.78;;
49626;SDS011;35527;54.616;39.786;2022-12-11T13:16:06;14.32;;;6.80;;
49626;SDS011;35527;54.616;39.786;2022-12-11T13:19:25;14.57;;;6.72;;
49626;SDS011;35527;54.616;39.786;2022-12-11T13:22:33;16.17;;;6.78;;
49626;SDS011;35527;54.616;39.786;2022-12-11T13:25:53;17.42;;;8.00;;
49626;SDS011;35527;54.616;39.786;2022-12-11T13:32:36;14.88;;;7.15;;
49626;SDS011;35527;54.616;39.786;2022-12-11T13:35:39;23.45;;;15.43;;
49626;SDS011;35527;54.616;39.786;2022-12-11T13:42:30;21.20;;;13.68;;
49626;SDS011;35527;54.616;39.786;2022-12-11T13:45:43;13.73;;;7.28;;
49626;SDS011;35527;54.616;39.786;2022-12-11T13:48:53;14.10;;;6.55;;
49626;SDS011;35527;54.616;39.786;2022-12-11T13:52:03;28.77;;;20.00;;
49626;SDS011;35527;54.616;39.786;2022-12-11T13:55:16;34.40;;;17.45;;
49626;SDS011;35527;54.616;39.786;2022-12-11T13:58:28;55.88;;;28.67;;
49626;SDS011;35527;54.616;39.786;2022-12-11T14:01:37;58.00;;;29.48;;
49626;SDS011;35527;54.616;39.786;2022-12-11T14:07:48;41.78;;;22.00;;
49626;SDS011;35527;54.616;39.786;2022-12-11T14:10:59;51.78;;;39.58;;
49626;SDS011;35527;54.616;39.786;2022-12-11T14:14:05;37.50;;;26.63;;
49626;SDS011;35527;54.616;39.786;2022-12-11T14:17:22;30.40;;;21.13;;
49626;SDS011;35527;54.616;39.786;2022-12-11T14:20:28;19.67;;;13.00;;
49626;SDS011;35527;54.616;39.786;2022-12-11T14:23:35;19.20;;;13.07;;
49626;SDS011;35527;54.616;39.786;2022-12-11T14:29:52;12.63;;;5.30;;
49626;SDS011;35527;54.616;39.786;2022-12-11T14:32:58;15.50;;;6.45;;
49626;SDS011;35527;54.616;39.786;2022-12-11T14:36:06;12.40;;;4.97;;
49626;SDS011;35527;54.616;39.786;2022-12-11T14:39:19;8.40;;;4.57;;
49626;SDS011;35527;54.616;39.786;2022-12-11T14:42:41;12.18;;;4.43;;
49626;SDS011;35527;54.616;39.786;2022-12-11T14:45:47;11.23;;;5.03;;
49626;SDS011;35527;54.616;39.786;2022-12-11T14:48:59;10.13;;;5.20;;
49626;SDS011;35527;54.616;39.786;2022-12-11T14:52:15;18.38;;;11.98;;
49626;SDS011;35527;54.616;39.786;2022-12-11T14:58:29;17.20;;;11.00;;
49626;SDS011;35527;54.616;39.786;2022-12-11T15:01:34;12.13;;;4.67;;
49626;SDS011;35527;54.616;39.786;2022-12-11T15:04:40;12.95;;;5.95;;
49626;SDS011;35527;54.616;39.786;2022-12-11T15:14:12;11.98;;;6.00;;
49626;SDS011;35527;54.616;39.786;2022-12-11T15:20:51;16.35;;;7.78;;
49626;SDS011;35527;54.616;39.786;2022-12-11T15:23:58;20.83;;;14.10;;
49626;SDS011;35527;54.616;39.786;2022-12-11T15:27:15;15.02;;;7.05;;
49626;SDS011;35527;54.616;39.786;2022-12-11T15:30:30;12.07;;;6.60;;
49626;SDS011;35527;54.616;39.786;2022-12-11T15:33:44;10.95;;;5.18;;
49626;SDS011;35527;54.616;39.786;2022-12-11T15:36:49;10.60;;;4.93;;
49626;SDS011;35527;54.616;39.786;2022-12-11T15:39:54;9.20;;;4.60;;
49626;SDS011;35527;54.616;39.786;2022-12-11T15:43:00;10.97;;;4.57;;
49626;SDS011;35527;54.616;39.786;2022-12-11T15:46:07;10.45;;;3.97;;
49626;SDS011;35527;54.616;39.786;2022-12-11T15:49:12;12.68;;;5.38;;
49626;SDS011;35527;54.616;39.786;2022-12-11T15:52:15;14.32;;;4.65;;
49626;SDS011;35527;54.616;39.786;2022-12-11T15:55:21;17.52;;;9.52;;
49626;SDS011;35527;54.616;39.786;2022-12-11T15:58:25;17.38;;;9.73;;
49626;SDS011;35527;54.616;39.786;2022-12-11T16:01:28;12.55;;;4.32;;
49626;SDS011;35527;54.616;39.786;2022-12-11T16:04:31;9.88;;;4.70;;
49626;SDS011;35527;54.616;39.786;2022-12-11T16:07:39;11.43;;;4.43;;
49626;SDS011;35527;54.616;39.786;2022-12-11T16:13:46;11.50;;;5.43;;
49626;SDS011;35527;54.616;39.786;2022-12-11T16:16:49;15.73;;;6.00;;
49626;SDS011;35527;54.616;39.786;2022-12-11T16:19:54;19.80;;;11.73;;
49626;SDS011;35527;54.616;39.786;2022-12-11T16:23:01;20.20;;;13.27;;
49626;SDS011;35527;54.616;39.786;2022-12-11T16:26:06;21.52;;;12.43;;
49626;SDS011;35527;54.616;39.786;2022-12-11T16:29:10;14.85;;;5.88;;
49626;SDS011;35527;54.616;39.786;2022-12-11T16:32:16;13.50;;;5.63;;
49626;SDS011;35527;54.616;39.786;2022-12-11T16:35:23;13.18;;;6.20;;
49626;SDS011;35527;54.616;39.786;2022-12-11T16:38:27;16.02;;;7.97;;
49626;SDS011;35527;54.616;39.786;2022-12-11T16:41:33;26.05;;;17.67;;
49626;SDS011;35527;54.616;39.786;2022-12-11T16:44:38;14.55;;;7.30;;
49626;SDS011;35527;54.616;39.786;2022-12-11T16:47:45;15.77;;;7.88;;
49626;SDS011;35527;54.616;39.786;2022-12-11T16:50:51;36.92;;;25.60;;
49626;SDS011;35527;54.616;39.786;2022-12-11T16:53:56;27.98;;;13.10;;
49626;SDS011;35527;54.616;39.786;2022-12-11T16:57:00;36.30;;;19.45;;
49626;SDS011;35527;54.616;39.786;2022-12-11T17:00:04;41.90;;;29.30;;
49626;SDS011;35527;54.616;39.786;2022-12-11T17:03:09;29.45;;;14.68;;
49626;SDS011;35527;54.616;39.786;2022-12-11T17:06:14;24.90;;;12.57;;
49626;SDS011;35527;54.616;39.786;2022-12-11T17:09:21;25.63;;;11.55;;
49626;SDS011;35527;54.616;39.786;2022-12-11T17:12:27;21.13;;;10.05;;
49626;SDS011;35527;54.616;39.786;2022-12-11T17:15:30;23.45;;;17.13;;
49626;SDS011;35527;54.616;39.786;2022-12-11T17:18:38;16.33;;;8.15;;
49626;SDS011;35527;54.616;39.786;2022-12-11T17:21:45;18.67;;;8.93;;
49626;SDS011;35527;54.616;39.786;2022-12-11T17:24:53;19.48;;;8.38;;
49626;SDS011;35527;54.616;39.786;2022-12-11T17:27:58;21.88;;;11.05;;
49626;SDS011;35527;54.616;39.786;2022-12-11T17:31:02;17.80;;;9.23;;
49626;SDS011;35527;54.616;39.786;2022-12-11T17:34:08;22.02;;;11.70;;
49626;SDS011;35527;54.616;39.786;2022-12-11T17:37:13;22.27;;;11.00;;
49626;SDS011;35527;54.616;39.786;2022-12-11T17:40:16;18.90;;;9.90;;
49626;SDS011;35527;54.616;39.786;2022-12-11T17:43:29;23.80;;;9.50;;
49626;SDS011;35527;54.616;39.786;2022-12-11T17:46:36;23.15;;;16.20;;
49626;SDS011;35527;54.616;39.786;2022-12-11T17:49:39;20.73;;;8.55;;
49626;SDS011;35527;54.616;39.786;2022-12-11T17:52:47;20.27;;;8.77;;
49626;SDS011;35527;54.616;39.786;2022-12-11T17:55:50;20.27;;;15.48;;
49626;SDS011;35527;54.616;39.786;2022-12-11T17:58:56;22.08;;;10.82;;
49626;SDS011;35527;54.616;39.786;2022-12-11T18:01:59;21.27;;;9.53;;
49626;SDS011;35527;54.616;39.786;2022-12-11T18:05:04;22.70;;;9.57;;
49626;SDS011;35527;54.616;39.786;2022-12-11T18:08:16;18.63;;;8.82;;
49626;SDS011;35527;54.616;39.786;2022-12-11T18:11:23;22.90;;;14.90;;
49626;SDS011;35527;54.616;39.786;2022-12-11T18:14:27;13.07;;;6.75;;
49626;SDS011;35527;54.616;39.786;2022-12-11T18:17:30;20.88;;;14.10;;
49626;SDS011;35527;54.616;39.786;2022-12-11T18:20:36;16.38;;;8.48;;
49626;SDS011;35527;54.616;39.786;2022-12-11T18:23:40;22.13;;;9.23;;
49626;SDS011;35527;54.616;39.786;2022-12-11T18:26:44;17.77;;;8.65;;
49626;SDS011;35527;54.616;39.786;2022-12-11T18:29:47;12.90;;;7.25;;
49626;SDS011;35527;54.616;39.786;2022-12-11T18:32:51;24.13;;;15.35;;
49626;SDS011;35527;54.616;39.786;2022-12-11T18:35:57;14.43;;;7.28;;
49626;SDS011;35527;54.616;39.786;2022-12-11T18:39:03;21.33;;;15.02;;
49626;SDS011;35527;54.616;39.786;2022-12-11T18:42:06;15.95;;;9.02;;
49626;SDS011;35527;54.616;39.786;2022-12-11T18:45:30;17.65;;;8.57;;
49626;SDS011;35527;54.616;39.786;2022-12-11T18:48:36;15.77;;;8.98;;
49626;SDS011;35527;54.616;39.786;2022-12-11T18:51:39;16.30;;;9.32;;
49626;SDS011;35527;54.616;39.786;2022-12-11T18:54:45;22.60;;;16.30;;
49626;SDS011;35527;54.616;39.786;2022-12-11T18:57:50;20.60;;;8.65;;
49626;SDS011;35527;54.616;39.786;2022-12-11T19:00:54;21.38;;;12.00;;
49626;SDS011;35527;54.616;39.786;2022-12-11T19:04:00;21.50;;;14.88;;
49626;SDS011;35527;54.616;39.786;2022-12-11T19:07:05;14.75;;;8.10;;
49626;SDS011;35527;54.616;39.786;2022-12-11T19:10:18;25.33;;;16.75;;
49626;SDS011;35527;54.616;39.786;2022-12-11T19:13:31;14.68;;;7.78;;
49626;SDS011;35527;54.616;39.786;2022-12-11T19:16:38;16.90;;;9.43;;
49626;SDS011;35527;54.616;39.786;2022-12-11T19:19:46;20.15;;;14.45;;
49626;SDS011;35527;54.616;39.786;2022-12-11T19:22:52;19.88;;;9.70;;
49626;SDS011;35527;54.616;39.786;2022-12-11T19:25:58;17.40;;;7.35;;
49626;SDS011;35527;54.616;39.786;2022-12-11T19:29:01;16.50;;;7.97;;
49626;SDS011;35527;54.616;39.786;2022-12-11T19:32:04;19.55;;;8.85;;
49626;SDS011;35527;54.616;39.786;2022-12-11T19:35:09;14.32;;;7.20;;
49626;SDS011;35527;54.616;39.786;2022-12-11T19:38:12;15.05;;;8.13;;
49626;SDS011;35527;54.616;39.786;2022-12-11T19:41:17;17.42;;;7.65;;
49626;SDS011;35527;54.616;39.786;2022-12-11T19:44:21;14.88;;;6.68;;
49626;SDS011;35527;54.616;39.786;2022-12-11T19:47:25;15.10;;;8.30;;
49626;SDS011;35527;54.616;39.786;2022-12-11T19:50:35;20.38;;;12.65;;
49626;SDS011;35527;54.616;39.786;2022-12-11T19:53:43;17.70;;;8.32;;
49626;SDS011;35527;54.616;39.786;2022-12-11T19:56:49;14.15;;;7.53;;
49626;SDS011;35527;54.616;39.786;2022-12-11T19:59:56;16.63;;;8.35;;
49626;SDS011;35527;54.616;39.786;2022-12-11T20:03:00;20.05;;;13.95;;
49626;SDS011;35527;54.616;39.786;2022-12-11T20:06:06;19.20;;;12.93;;
49626;SDS011;35527;54.616;39.786;2022-12-11T20:09:10;16.30;;;8.10;;
49626;SDS011;35527;54.616;39.786;2022-12-11T20:12:14;18.20;;;8.43;;
49626;SDS011;35527;54.616;39.786;2022-12-11T20:15:46;18.83;;;9.13;;
49626;SDS011;35527;54.616;39.786;2022-12-11T20:23:29;14.63;;;5.97;;
49626;SDS011;35527;54.616;39.786;2022-12-11T20:26:37;16.70;;;8.60;;
49626;SDS011;35527;54.616;39.786;2022-12-11T20:29:40;20.60;;;8.63;;
49626;SDS011;35527;54.616;39.786;2022-12-11T20:33:08;15.80;;;6.45;;
49626;SDS011;35527;54.616;39.786;2022-12-11T20:36:11;18.02;;;7.28;;
49626;SDS011;35527;54.616;39.786;2022-12-11T20:39:20;18.45;;;11.27;;
49626;SDS011;35527;54.616;39.786;2022-12-11T20:42:24;17.58;;;7.03;;
49626;SDS011;35527;54.616;39.786;2022-12-11T20:45:28;17.52;;;7.80;;
49626;SDS011;35527;54.616;39.786;2022-12-11T20:48:34;14.35;;;5.97;;
49626;SDS011;35527;54.616;39.786;2022-12-11T20:51:39;18.47;;;7.90;;
49626;SDS011;35527;54.616;39.786;2022-12-11T20:54:46;15.10;;;7.50;;
49626;SDS011;35527;54.616;39.786;2022-12-11T20:57:51;14.73;;;7.55;;
49626;SDS011;35527;54.616;39.786;2022-12-11T21:00:58;19.88;;;11.30;;
49626;SDS011;35527;54.616;39.786;2022-12-11T21:04:02;16.90;;;6.85;;
49626;SDS011;35527;54.616;39.786;2022-12-11T21:07:07;14.13;;;5.38;;
49626;SDS011;35527;54.616;39.786;2022-12-11T21:10:11;13.63;;;7.25;;
49626;SDS011;35527;54.616;39.786;2022-12-11T21:13:17;14.63;;;6.13;;
49626;SDS011;35527;54.616;39.786;2022-12-11T21:16:23;16.75;;;7.05;;
49626;SDS011;35527;54.616;39.786;2022-12-11T21:19:28;14.10;;;7.32;;
49626;SDS011;35527;54.616;39.786;2022-12-11T21:22:32;17.45;;;6.68;;
49626;SDS011;35527;54.616;39.786;2022-12-11T21:25:37;14.77;;;6.93;;